Time;durP1;ratioP1;P1;durP2;ratioP2;P2;SDS_P1;SDS_P2;PMS_P1;PMS_P2;Temp;Humidity;BMP_temperature;BMP_pressure;BME280_temperature;BME280_humidity;BME280_pressure;Samples;Min_cycle;Max_cycle;Signal;HPM_P1;HPM_P2
2022/11/27 00:01:33;;;;;;;14.93;5.25;;;;;;;7.52;100.00;102436.00;4957749;28;20046;-52
2022/11/27 00:04:01;;;;;;;16.33;5.70;;;;;;;7.53;100.00;102426.84;4983469;28;20057;-52
2022/11/27 00:06:29;;;;;;;16.15;5.53;;;;;;;7.55;100.00;102427.47;4970604;28;20066;-52
2022/11/27 00:08:59;;;;;;;12.43;5.40;;;;;;;7.56;100.00;102420.97;4976944;28;20045;-52
2022/11/27 00:11:28;;;;;;;16.75;5.88;;;;;;;7.57;100.00;102417.22;4974457;28;20500;-53
2022/11/27 00:13:56;;;;;;;20.48;6.07;;;;;;;7.59;100.00;102419.72;4983857;28;20073;-51
2022/11/27 00:16:24;;;;;;;18.15;5.63;;;;;;;7.58;100.00;102413.47;4973982;28;20054;-52
2022/11/27 00:18:52;;;;;;;14.95;5.10;;;;;;;7.57;100.00;102406.38;4972679;28;20425;-52
2022/11/27 00:21:23;;;;;;;18.70;5.85;;;;;;;7.54;100.00;102404.09;4981272;28;20066;-53
2022/11/27 00:23:51;;;;;;;15.73;6.00;;;;;;;7.54;100.00;102404.09;4983478;28;20038;-57
2022/11/27 00:26:19;;;;;;;15.43;5.38;;;;;;;7.54;100.00;102404.09;4966443;28;20054;-53
2022/11/27 00:28:47;;;;;;;14.63;5.70;;;;;;;7.55;100.00;102394.06;4975547;28;20039;-55
2022/11/27 00:31:42;;;;;;;17.90;5.82;;;;;;;7.50;100.00;102405.53;4957035;28;20051;-55
2022/11/27 00:34:11;;;;;;;17.45;5.70;;;;;;;7.46;100.00;102404.31;4979624;28;20055;-52
2022/11/27 00:36:38;;;;;;;18.70;6.07;;;;;;;7.42;100.00;102397.63;4978813;28;20057;-52
2022/11/27 00:39:13;;;;;;;20.00;5.97;;;;;;;7.39;100.00;102390.72;4972734;28;20464;-51
2022/11/27 00:41:40;;;;;;;13.63;5.13;;;;;;;7.40;100.00;102386.13;4989312;28;20050;-53
2022/11/27 00:44:08;;;;;;;14.13;5.60;;;;;;;7.36;100.00;102382.16;4986756;28;20053;-53
2022/11/27 00:46:35;;;;;;;14.38;5.00;;;;;;;7.37;100.00;102381.13;4979774;28;20042;-55
2022/11/27 00:49:04;;;;;;;15.88;5.88;;;;;;;7.37;100.00;102383.84;4981225;28;20063;-53
2022/11/27 00:51:32;;;;;;;14.05;5.20;;;;;;;7.35;100.00;102383.22;4986122;28;20046;-51
2022/11/27 00:54:00;;;;;;;16.30;5.88;;;;;;;7.35;100.00;102380.50;4980667;28;20097;-51
2022/11/27 00:56:30;;;;;;;14.35;5.07;;;;;;;7.35;100.00;102372.38;4979792;28;20043;-51
2022/11/27 00:58:58;;;;;;;18.27;6.10;;;;;;;7.28;100.00;102376.97;4974703;28;20070;-55
2022/11/27 01:01:33;;;;;;;15.57;5.35;;;;;;;7.23;100.00;102375.69;4979733;28;20046;-52
2022/11/27 01:04:02;;;;;;;14.18;5.38;;;;;;;7.21;100.00;102374.22;4976567;28;20043;-50
2022/11/27 01:06:30;;;;;;;16.17;5.82;;;;;;;7.15;100.00;102370.47;4954018;28;20039;-55
2022/11/27 01:08:58;;;;;;;16.67;5.30;;;;;;;7.14;100.00;102367.97;4981993;28;20060;-49
2022/11/27 01:11:29;;;;;;;14.43;5.20;;;;;;;7.10;100.00;102364.84;4982989;28;20046;-52
2022/11/27 01:14:04;;;;;;;17.40;5.63;;;;;;;7.04;100.00;102360.25;4985550;28;20049;-56
2022/11/27 01:16:32;;;;;;;12.43;5.20;;;;;;;7.04;100.00;102361.06;4976691;28;20054;-55
2022/11/27 01:19:01;;;;;;;12.10;5.50;;;;;;;7.04;100.00;102349.41;4970205;28;20109;-56
2022/11/27 01:21:32;;;;;;;13.10;5.05;;;;;;;7.05;100.00;102348.38;4969104;28;20073;-53
2022/11/27 01:24:01;;;;;;;13.93;5.90;;;;;;;7.07;100.00;102343.59;4964211;28;20047;-54
2022/11/27 01:26:30;;;;;;;16.55;5.97;;;;;;;7.10;100.00;102343.16;4979237;28;20062;-54
2022/11/27 01:28:58;;;;;;;13.30;5.25;;;;;;;7.12;100.00;102332.97;4979669;28;20497;-54
2022/11/27 01:31:28;;;;;;;18.45;5.65;;;;;;;7.14;100.00;102347.13;4977402;28;20061;-56
2022/11/27 01:34:01;;;;;;;16.88;5.63;;;;;;;7.16;100.00;102341.50;4962599;28;20489;-55
2022/11/27 01:36:30;;;;;;;12.65;5.18;;;;;;;7.17;100.00;102346.72;4976322;28;20039;-52
2022/11/27 01:38:59;;;;;;;13.95;5.30;;;;;;;7.17;100.00;102333.16;4980248;28;20044;-49
2022/11/27 01:41:32;;;;;;;13.48;5.63;;;;;;;7.18;100.00;102331.28;4969181;28;20070;-51
2022/11/27 01:44:23;;;;;;;15.55;5.35;;;;;;;7.21;100.00;102322.72;4979263;28;20044;-51
2022/11/27 01:47:03;;;;;;;12.20;5.18;;;;;;;7.20;100.00;102318.38;4987321;28;20090;-54
2022/11/27 01:49:46;;;;;;;13.13;5.35;;;;;;;7.19;100.00;102328.38;4961657;28;20034;-52
2022/11/27 01:52:15;;;;;;;13.60;5.55;;;;;;;7.18;100.00;102317.72;4972578;28;20041;-51
2022/11/27 01:55:00;;;;;;;15.27;5.43;;;;;;;7.18;100.00;102323.97;4979169;28;20039;-56
2022/11/27 01:57:35;;;;;;;16.50;5.63;;;;;;;7.20;100.00;102313.78;4984217;28;20441;-54
2022/11/27 02:00:05;;;;;;;13.75;5.13;;;;;;;7.23;100.00;102310.63;4981557;28;20046;-55
2022/11/27 02:02:40;;;;;;;12.13;5.35;;;;;;;7.24;100.00;102298.75;4979331;28;20523;-51
2022/11/27 02:05:09;;;;;;;15.90;5.30;;;;;;;7.26;100.00;102295.81;4966436;28;20117;-55
2022/11/27 02:07:36;;;;;;;12.45;4.72;;;;;;;7.26;100.00;102287.69;4977455;28;20054;-56
2022/11/27 02:10:05;;;;;;;15.00;5.45;;;;;;;7.25;100.00;102276.03;4968943;28;20042;-55
2022/11/27 02:12:43;;;;;;;15.02;4.82;;;;;;;7.25;100.00;102254.34;4977400;28;20038;-54
2022/11/27 02:15:43;;;;;;;16.13;5.40;;;;;;;7.18;99.86;102261.63;4967307;28;20042;-56
2022/11/27 02:18:38;;;;;;;17.33;5.78;;;;;;;7.12;100.00;102250.78;4964013;28;20509;-52
2022/11/27 02:21:23;;;;;;;12.18;5.20;;;;;;;7.14;100.00;102238.69;4972042;28;20062;-54
2022/11/27 02:23:51;;;;;;;10.18;4.45;;;;;;;7.17;100.00;102229.34;4962459;28;20070;-55
2022/11/27 02:26:44;;;;;;;16.52;5.88;;;;;;;7.17;100.00;102222.03;4982193;28;20053;-53
2022/11/27 02:29:13;;;;;;;11.70;5.10;;;;;;;7.19;100.00;102221.81;4978430;28;20046;-52
2022/11/27 02:31:51;;;;;;;14.30;5.53;;;;;;;7.18;99.14;102217.44;4975942;28;20058;-52
2022/11/27 02:34:43;;;;;;;12.45;4.85;;;;;;;7.17;99.52;102219.31;4981872;28;20039;-56
2022/11/27 02:37:38;;;;;;;15.25;5.35;;;;;;;7.18;98.77;102218.25;4965448;28;20077;-56
2022/11/27 02:40:21;;;;;;;14.00;5.00;;;;;;;7.14;98.07;102227.84;4980508;28;20050;-57
2022/11/27 02:43:25;;;;;;;11.43;5.00;;;;;;;7.06;98.51;102233.50;4957906;28;20068;-52
2022/11/27 02:45:53;;;;;;;13.97;4.63;;;;;;;7.04;99.14;102232.88;4938574;28;20063;-56
2022/11/27 02:48:26;;;;;;;14.15;5.28;;;;;;;7.02;98.42;102233.09;4962517;28;20038;-57
2022/11/27 02:50:55;;;;;;;13.35;4.70;;;;;;;7.00;99.12;102237.06;4975914;28;20136;-53
2022/11/27 02:53:26;;;;;;;12.50;4.50;;;;;;;7.00;98.82;102229.75;4973362;28;20097;-56
2022/11/27 02:55:55;;;;;;;13.13;4.80;;;;;;;7.02;98.76;102229.53;4965908;28;20140;-52
2022/11/27 02:58:25;;;;;;;13.15;5.20;;;;;;;7.03;98.19;102232.06;4975250;28;20054;-52
2022/11/27 03:00:53;;;;;;;13.32;4.65;;;;;;;7.04;98.01;102220.16;4981715;28;20043;-53
2022/11/27 03:03:24;;;;;;;11.15;4.68;;;;;;;7.06;98.09;102219.13;4969786;28;20034;-56
2022/11/27 03:05:55;;;;;;;12.18;4.60;;;;;;;7.06;97.77;102225.38;4971361;28;20038;-54
2022/11/27 03:08:32;;;;;;;15.13;4.88;;;;;;;7.07;97.81;102224.34;4964662;28;20098;-53
2022/11/27 03:11:11;;;;;;;11.63;4.60;;;;;;;7.08;97.92;102238.72;4961266;28;20039;-57
2022/11/27 03:13:42;;;;;;;10.68;4.68;;;;;;;7.08;97.52;102238.72;4971150;28;20093;-55
2022/11/27 03:16:39;;;;;;;15.77;5.20;;;;;;;7.05;97.28;102234.56;4978172;28;20054;-55
2022/11/27 03:19:52;;;;;;;12.52;4.45;;;;;;;7.04;97.58;102222.88;4977595;28;20098;-54
2022/11/27 03:22:20;;;;;;;13.63;4.20;;;;;;;7.03;98.05;102218.50;4949746;28;20046;-54
2022/11/27 03:24:48;;;;;;;13.50;4.88;;;;;;;7.05;98.08;102204.75;4972113;28;20053;-53
2022/11/27 03:27:29;;;;;;;14.38;4.60;;;;;;;7.06;97.61;102202.88;4993004;28;20046;-57
2022/11/27 03:29:58;;;;;;;11.10;4.28;;;;;;;7.04;97.39;102197.66;4980201;28;20037;-56
2022/11/27 03:32:27;;;;;;;14.30;4.80;;;;;;;7.02;97.09;102197.03;4970353;28;20058;-54
2022/11/27 03:34:55;;;;;;;15.20;4.50;;;;;;;7.03;96.95;102206.84;4968715;28;20049;-56
2022/11/27 03:37:24;;;;;;;18.52;4.65;;;;;;;7.02;97.17;102207.84;4976714;28;20043;-55
2022/11/27 03:39:51;;;;;;;12.40;4.15;;;;;;;7.03;97.01;102202.25;4973269;28;20043;-56
2022/11/27 03:42:26;;;;;;;10.95;3.60;;;;;;;7.05;97.08;102207.47;4977227;28;20058;-53
2022/11/27 03:45:12;;;;;;;14.85;4.85;;;;;;;7.06;96.96;102209.13;4967071;28;20046;-54
2022/11/27 03:48:13;;;;;;;9.90;4.60;;;;;;;7.08;97.07;102201.63;4979389;28;20619;-56
2022/11/27 03:51:00;;;;;;;12.20;4.10;;;;;;;7.07;97.15;102199.09;4987337;28;20493;-55
2022/11/27 03:53:43;;;;;;;13.00;4.45;;;;;;;7.07;96.49;102189.13;4936183;28;20046;-57
2022/11/27 03:56:35;;;;;;;12.75;4.20;;;;;;;7.05;96.79;102183.06;4970719;28;20043;-54
2022/11/27 03:59:21;;;;;;;11.45;4.25;;;;;;;7.04;97.46;102184.09;4963094;28;20485;-55
2022/11/27 04:01:48;;;;;;;10.98;3.70;;;;;;;7.01;97.18;102182.66;4957757;28;20112;-54
2022/11/27 04:04:16;;;;;;;11.88;4.53;;;;;;;7.01;96.32;102184.53;4967205;28;20038;-55
2022/11/27 04:06:44;;;;;;;15.02;4.47;;;;;;;7.02;97.26;102183.47;4988593;28;20109;-53
2022/11/27 04:09:11;;;;;;;11.93;3.85;;;;;;;7.00;97.08;102189.13;4963067;28;20154;-55
2022/11/27 04:11:39;;;;;;;10.63;3.90;;;;;;;7.02;96.73;102180.75;4981776;28;20043;-55
2022/11/27 04:14:07;;;;;;;10.20;3.85;;;;;;;7.01;96.33;102181.81;4957658;28;20042;-56
2022/11/27 04:16:34;;;;;;;11.73;3.90;;;;;;;7.01;96.52;102185.34;4977936;28;20042;-53
2022/11/27 04:19:03;;;;;;;9.70;3.55;;;;;;;7.02;96.66;102180.75;4978542;28;20062;-55
2022/11/27 04:21:30;;;;;;;11.85;3.75;;;;;;;7.02;96.22;102187.03;4967520;28;20089;-56
2022/11/27 04:23:58;;;;;;;11.82;4.07;;;;;;;7.01;96.13;102184.53;4977554;28;20051;-54
2022/11/27 04:26:25;;;;;;;10.40;3.80;;;;;;;6.95;95.50;102179.94;4977866;28;20054;-56
2022/11/27 04:28:53;;;;;;;13.13;4.28;;;;;;;6.90;96.48;102182.44;4979169;28;20043;-50
2022/11/27 04:31:20;;;;;;;12.45;4.00;;;;;;;6.80;96.24;102191.81;4986402;28;20494;-52
2022/11/27 04:33:48;;;;;;;11.05;3.70;;;;;;;6.73;96.84;102192.88;4978665;28;20070;-52
2022/11/27 04:36:16;;;;;;;12.43;4.10;;;;;;;6.72;97.46;102185.81;4974379;28;20524;-54
2022/11/27 04:38:44;;;;;;;11.20;3.45;;;;;;;6.71;97.38;102206.66;4967596;28;20038;-53
2022/11/27 04:41:11;;;;;;;8.10;3.30;;;;;;;6.73;97.66;102192.88;4979920;28;20101;-51
2022/11/27 04:43:39;;;;;;;10.02;3.78;;;;;;;6.74;97.68;102186.44;4974485;28;20448;-50
2022/11/27 04:46:06;;;;;;;8.70;3.50;;;;;;;6.75;97.74;102194.34;4988300;28;20046;-51
2022/11/27 04:48:34;;;;;;;9.18;3.63;;;;;;;6.79;97.19;102187.47;4975767;28;20062;-52
2022/11/27 04:51:01;;;;;;;13.13;4.22;;;;;;;6.83;97.07;102188.72;4977879;28;20042;-51
2022/11/27 04:53:29;;;;;;;11.23;3.40;;;;;;;6.85;96.78;102185.78;4974133;28;20047;-53
2022/11/27 04:55:57;;;;;;;12.75;4.03;;;;;;;6.86;97.22;102183.94;4969435;28;20038;-52
2022/11/27 04:58:24;;;;;;;11.00;3.78;;;;;;;6.87;96.80;102172.03;4962295;28;20042;-52
2022/11/27 05:00:52;;;;;;;8.55;3.70;;;;;;;6.88;96.98;102160.16;4990666;28;20058;-51
2022/11/27 05:03:20;;;;;;;8.63;3.65;;;;;;;6.88;96.22;102157.44;4958626;28;20077;-53
2022/11/27 05:05:56;;;;;;;12.75;3.83;;;;;;;6.85;95.72;102141.59;4955683;28;20409;-52
2022/11/27 05:08:24;;;;;;;;;;;;;;;6.82;96.42;102140.97;4976638;28;20070;-50
2022/11/27 05:11:12;;;;;;;11.32;3.63;;;;;;;6.83;96.59;102139.94;4970016;28;20033;-52
2022/11/27 05:13:40;;;;;;;9.85;3.60;;;;;;;6.87;96.44;102147.66;4973626;28;20054;-51
2022/11/27 05:16:08;;;;;;;8.18;2.97;;;;;;;6.88;96.50;102135.75;4978936;28;20046;-51
2022/11/27 05:18:35;;;;;;;12.25;3.72;;;;;;;6.91;96.42;102140.78;4987598;28;20041;-51
2022/11/27 05:21:06;;;;;;;12.18;3.42;;;;;;;6.91;96.54;102129.94;4973811;28;20054;-49
2022/11/27 05:23:34;;;;;;;12.35;3.70;;;;;;;6.91;96.50;102129.94;4952843;28;20046;-50
2022/11/27 05:26:02;;;;;;;12.60;4.20;;;;;;;6.91;96.54;102125.34;4976535;28;20068;-53
2022/11/27 05:28:30;;;;;;;12.00;4.13;;;;;;;6.89;95.42;102126.59;4984173;28;20039;-51
2022/11/27 05:30:58;;;;;;;11.68;4.07;;;;;;;6.85;95.95;102120.75;4986899;28;20314;-55
2022/11/27 05:33:26;;;;;;;13.80;4.28;;;;;;;6.82;95.81;102121.19;4964115;28;20039;-55
2022/11/27 05:35:53;;;;;;;11.48;3.55;;;;;;;6.76;96.33;102120.16;4974695;28;20039;-52
2022/11/27 05:38:21;;;;;;;10.27;3.83;;;;;;;6.83;96.28;102115.56;4985062;28;20054;-50
2022/11/27 05:40:48;;;;;;;12.95;3.40;;;;;;;6.79;96.79;102100.78;4972617;28;20067;-49
2022/11/27 05:43:16;;;;;;;10.75;3.22;;;;;;;6.80;96.55;102113.25;4944177;28;20561;-51
2022/11/27 05:45:44;;;;;;;10.00;3.88;;;;;;;6.83;96.46;102107.44;4973602;28;20413;-50
2022/11/27 05:48:11;;;;;;;10.27;3.70;;;;;;;6.86;95.91;102110.78;4981927;28;20031;-50
2022/11/27 05:50:39;;;;;;;12.93;4.00;;;;;;;6.82;95.27;102104.94;4981439;28;20042;-51
2022/11/27 05:53:07;;;;;;;12.65;3.90;;;;;;;6.78;96.26;102107.25;4973230;28;20565;-49
2022/11/27 05:55:34;;;;;;;15.13;4.97;;;;;;;6.77;96.51;102097.44;4973746;28;20051;-53
2022/11/27 05:58:02;;;;;;;12.30;4.25;;;;;;;6.78;96.52;102101.84;4978829;28;20046;-52
2022/11/27 06:00:30;;;;;;;8.38;3.70;;;;;;;6.78;96.49;102088.28;4971226;28;20118;-52
2022/11/27 06:02:57;;;;;;;11.77;4.07;;;;;;;6.80;96.65;102083.47;4976677;28;20050;-49
2022/11/27 06:05:25;;;;;;;12.82;4.10;;;;;;;6.85;96.82;102082.00;4976463;28;20520;-50
2022/11/27 06:07:53;;;;;;;9.55;3.78;;;;;;;6.86;96.27;102079.09;4971587;28;20405;-50
2022/11/27 06:10:21;;;;;;;13.85;4.32;;;;;;;6.86;96.26;102079.09;4980188;28;20378;-53
2022/11/27 06:12:48;;;;;;;10.32;3.72;;;;;;;6.86;95.49;102080.97;4975300;28;20532;-53
2022/11/27 06:15:16;;;;;;;9.95;3.95;;;;;;;6.83;96.06;102082.22;4976725;28;20051;-52
2022/11/27 06:17:44;;;;;;;9.60;3.88;;;;;;;6.84;96.08;102081.19;4983368;28;20046;-53
2022/11/27 06:20:11;;;;;;;11.02;4.00;;;;;;;6.85;96.07;102080.13;4977578;28;20042;-53
2022/11/27 06:22:39;;;;;;;9.43;4.03;;;;;;;6.82;96.60;102078.69;4976934;28;20046;-52
2022/11/27 06:25:07;;;;;;;10.80;3.90;;;;;;;6.82;96.70;102078.69;4976166;28;20038;-51
2022/11/27 06:27:35;;;;;;;14.57;4.38;;;;;;;6.86;96.87;102073.69;4990993;28;20054;-52
2022/11/27 06:30:04;;;;;;;9.55;4.10;;;;;;;6.87;96.83;102075.31;4985418;28;20051;-51
2022/11/27 06:32:32;;;;;;;10.88;3.92;;;;;;;6.88;96.50;102065.31;4971273;28;20114;-53
2022/11/27 06:35:00;;;;;;;10.43;4.07;;;;;;;6.89;96.67;102067.00;4971644;28;20061;-52
2022/11/27 06:37:27;;;;;;;11.48;4.13;;;;;;;6.89;96.74;102067.00;4961523;28;20061;-51
2022/11/27 06:39:55;;;;;;;12.30;4.00;;;;;;;6.90;95.93;102074.91;4976259;28;20046;-49
2022/11/27 06:42:23;;;;;;;11.00;3.90;;;;;;;6.92;96.06;102077.41;4994785;28;20065;-50
2022/11/27 06:44:51;;;;;;;10.30;4.00;;;;;;;6.93;96.39;102073.66;4994420;28;20559;-50
2022/11/27 06:47:18;;;;;;;10.20;4.15;;;;;;;6.95;96.71;102074.25;4983131;28;20531;-48
2022/11/27 06:49:46;;;;;;;12.07;4.53;;;;;;;6.95;96.57;102071.56;4992215;28;20045;-50
2022/11/27 06:52:13;;;;;;;11.40;4.07;;;;;;;6.93;96.14;102073.66;4976972;28;20042;-50
2022/11/27 06:54:41;;;;;;;11.55;4.28;;;;;;;6.94;96.29;102078.03;4981560;28;20520;-51
2022/11/27 06:57:10;;;;;;;9.63;4.30;;;;;;;6.95;96.08;102072.41;4995476;28;20046;-53
2022/11/27 06:59:37;;;;;;;12.32;4.63;;;;;;;6.93;96.37;102070.97;4977437;28;20054;-52
2022/11/27 07:02:05;;;;;;;8.73;3.90;;;;;;;6.91;96.51;102062.22;4979048;28;20094;-51
2022/11/27 07:04:33;;;;;;;9.95;4.32;;;;;;;6.89;96.86;102067.00;4976352;28;20470;-53
2022/11/27 07:07:01;;;;;;;12.23;4.78;;;;;;;6.85;96.96;102063.03;4978540;28;20051;-52
2022/11/27 07:09:28;;;;;;;11.05;4.20;;;;;;;6.80;97.38;102059.09;4976956;28;20051;-51
2022/11/27 07:11:56;;;;;;;11.13;4.30;;;;;;;6.82;97.69;102053.47;4974041;28;20046;-52
2022/11/27 07:14:24;;;;;;;10.57;4.55;;;;;;;6.82;98.02;102054.28;4975328;28;20050;-57
2022/11/27 07:16:51;;;;;;;10.70;4.65;;;;;;;6.85;98.18;102044.09;4973607;28;20053;-53
2022/11/27 07:19:19;;;;;;;10.05;4.50;;;;;;;6.85;98.27;102033.25;4975220;28;20042;-54
2022/11/27 07:21:47;;;;;;;15.43;4.43;;;;;;;6.85;99.24;102035.94;4965194;28;20516;-52
2022/11/27 07:24:15;;;;;;;10.15;4.32;;;;;;;6.83;99.44;102026.19;4994751;28;20038;-52
2022/11/27 07:26:42;;;;;;;12.15;4.90;;;;;;;6.87;99.76;102028.44;4978619;28;20054;-53
2022/11/27 07:29:11;;;;;;;13.05;4.97;;;;;;;6.88;99.49;102027.38;4994347;28;20074;-54
2022/11/27 07:31:39;;;;;;;11.68;4.80;;;;;;;6.90;99.28;102031.53;4990493;28;20459;-51
2022/11/27 07:34:06;;;;;;;10.57;4.40;;;;;;;6.91;99.90;102032.41;4988770;28;20066;-52
2022/11/27 07:36:42;;;;;;;10.38;4.65;;;;;;;6.89;99.86;102029.06;4994059;28;20049;-54
2022/11/27 07:39:10;;;;;;;13.10;4.45;;;;;;;6.87;99.99;102017.63;4977340;28;20070;-52
2022/11/27 07:41:38;;;;;;;10.93;4.45;;;;;;;6.85;100.00;102009.69;4971085;28;20104;-52
2022/11/27 07:44:06;;;;;;;12.27;4.72;;;;;;;6.85;100.00;102004.28;4994167;28;20050;-51
2022/11/27 07:46:34;;;;;;;10.13;4.40;;;;;;;6.89;100.00;102012.81;4993841;28;20473;-50
2022/11/27 07:49:02;;;;;;;13.52;4.90;;;;;;;6.90;100.00;102011.75;4993601;28;20453;-54
2022/11/27 07:51:30;;;;;;;12.45;5.00;;;;;;;6.89;100.00;102012.81;4991084;28;20501;-52
2022/11/27 07:53:59;;;;;;;11.40;4.55;;;;;;;6.87;100.00;102009.50;4993624;28;20386;-52
2022/11/27 07:56:26;;;;;;;11.55;5.13;;;;;;;6.87;100.00;101999.47;4993486;28;20497;-50
2022/11/27 07:58:55;;;;;;;12.45;5.22;;;;;;;6.88;100.00;101995.75;4973105;28;20038;-52
2022/11/27 08:01:22;;;;;;;17.70;5.32;;;;;;;6.90;100.00;101995.50;4976418;28;20075;-48
2022/11/27 08:03:50;;;;;;;12.70;5.43;;;;;;;6.90;100.00;101992.78;4983576;28;20049;-49
2022/11/27 08:06:22;;;;;;;14.32;5.35;;;;;;;6.90;100.00;101984.66;4975771;28;20489;-51
2022/11/27 08:08:50;;;;;;;12.82;5.30;;;;;;;6.87;100.00;101979.69;4959568;28;20043;-50
2022/11/27 08:11:20;;;;;;;15.20;5.72;;;;;;;6.85;100.00;101973.66;4976108;28;20050;-53
2022/11/27 08:13:49;;;;;;;14.07;5.68;;;;;;;6.85;100.00;101962.81;4990296;28;20046;-53
2022/11/27 08:16:17;;;;;;;9.70;4.70;;;;;;;6.86;100.00;101965.31;4984805;28;20390;-52
2022/11/27 08:18:45;;;;;;;10.30;5.20;;;;;;;6.82;100.00;101959.47;4973924;28;20049;-52
2022/11/27 08:21:13;;;;;;;13.98;5.45;;;;;;;6.80;100.00;101967.00;4980122;28;20501;-51
2022/11/27 08:23:40;;;;;;;13.43;5.70;;;;;;;6.80;100.00;101966.16;4965240;28;20043;-52
2022/11/27 08:26:09;;;;;;;12.07;5.57;;;;;;;6.82;100.00;101956.78;4984602;28;20049;-52
2022/11/27 08:28:37;;;;;;;13.73;5.57;;;;;;;6.87;100.00;101960.72;4958623;28;20054;-56
2022/11/27 08:31:06;;;;;;;12.52;5.57;;;;;;;6.89;100.00;101948.63;4962895;28;20039;-51
2022/11/27 08:33:34;;;;;;;12.50;5.70;;;;;;;6.94;100.00;101956.94;4965615;28;20070;-53
2022/11/27 08:36:02;;;;;;;11.45;5.43;;;;;;;6.94;100.00;101947.97;4970250;28;20501;-51
2022/11/27 08:38:30;;;;;;;12.05;5.90;;;;;;;6.94;100.00;101947.97;4963110;28;20047;-51
2022/11/27 08:41:00;;;;;;;14.70;5.28;;;;;;;6.93;100.00;101951.75;4961506;28;20129;-53
2022/11/27 08:43:28;;;;;;;10.63;5.13;;;;;;;6.95;100.00;101944.22;4949247;28;20420;-52
2022/11/27 08:45:57;;;;;;;13.27;5.22;;;;;;;6.95;100.00;101947.78;4978384;28;20113;-53
2022/11/27 08:48:25;;;;;;;11.10;5.45;;;;;;;6.96;100.00;101948.59;4974024;28;20039;-52
2022/11/27 08:50:53;;;;;;;13.02;5.50;;;;;;;6.95;100.00;101958.59;4937689;28;20034;-56
2022/11/27 08:53:21;;;;;;;9.38;5.00;;;;;;;6.93;100.00;101949.03;4974028;28;20039;-53
2022/11/27 08:55:49;;;;;;;12.63;5.65;;;;;;;6.93;100.00;101954.47;4974009;28;20097;-52
2022/11/27 08:58:17;;;;;;;12.30;5.97;;;;;;;6.94;100.00;101956.09;4973813;28;20528;-51
2022/11/27 09:00:44;;;;;;;11.10;5.43;;;;;;;6.90;100.00;101949.44;4981140;28;20425;-52
2022/11/27 09:03:12;;;;;;;10.25;4.82;;;;;;;6.88;100.00;101962.38;4959442;28;20043;-52
2022/11/27 09:05:43;;;;;;;11.65;5.60;;;;;;;6.88;100.00;101951.53;4974036;28;20081;-54
2022/11/27 09:08:15;;;;;;;12.00;5.30;;;;;;;6.83;100.00;101955.75;4973960;28;20042;-51
2022/11/27 09:10:42;;;;;;;12.27;5.40;;;;;;;6.85;100.00;101955.50;4980283;28;20034;-54
2022/11/27 09:13:10;;;;;;;13.57;5.68;;;;;;;6.91;100.00;101959.25;4951554;28;20042;-51
2022/11/27 09:15:38;;;;;;;10.93;5.63;;;;;;;6.95;100.00;101963.16;4958865;28;20090;-52
2022/11/27 09:18:05;;;;;;;12.98;5.25;;;;;;;6.99;100.00;101959.00;4973838;28;20524;-52
2022/11/27 09:20:33;;;;;;;14.27;5.60;;;;;;;6.96;100.00;101954.03;4980061;28;20035;-52
2022/11/27 09:23:01;;;;;;;11.23;5.20;;;;;;;6.98;100.00;101962.75;4973948;28;20130;-54
2022/11/27 09:25:29;;;;;;;13.88;5.43;;;;;;;6.98;100.00;101954.63;4987759;28;20034;-53
2022/11/27 09:27:56;;;;;;;11.30;5.38;;;;;;;6.96;100.00;101956.72;4974269;28;20477;-52
2022/11/27 09:30:24;;;;;;;11.82;5.30;;;;;;;6.99;100.00;101953.56;4985435;28;20501;-53
2022/11/27 09:32:52;;;;;;;10.88;5.43;;;;;;;6.96;100.00;101960.25;4974168;28;20111;-52
2022/11/27 09:35:19;;;;;;;10.95;5.25;;;;;;;6.89;100.00;101961.34;4985142;28;20046;-52
2022/11/27 09:37:47;;;;;;;11.23;5.47;;;;;;;6.90;100.00;101965.69;4978947;28;20043;-55
2022/11/27 09:40:16;;;;;;;13.30;5.38;;;;;;;6.92;100.00;101961.72;4985035;28;20121;-53
2022/11/27 09:42:53;;;;;;;10.38;4.90;;;;;;;6.94;100.00;101959.63;4980186;28;20039;-51
2022/11/27 09:45:21;;;;;;;13.13;5.47;;;;;;;6.95;100.00;101955.91;4967083;28;20517;-50
2022/11/27 09:47:54;;;;;;;12.77;5.50;;;;;;;6.94;100.00;101956.09;4979941;28;20050;-53
2022/11/27 09:50:31;;;;;;;10.20;5.15;;;;;;;6.93;100.00;101957.16;4969640;28;20034;-50
2022/11/27 09:53:15;;;;;;;13.35;5.80;;;;;;;6.94;100.00;101954.22;4973451;28;20042;-50
2022/11/27 09:55:47;;;;;;;11.63;5.30;;;;;;;6.97;100.00;101955.66;4968496;28;20050;-56
2022/11/27 09:58:26;;;;;;;10.82;5.28;;;;;;;6.98;100.00;101952.75;4960665;28;20046;-53
2022/11/27 10:00:54;;;;;;;11.63;5.90;;;;;;;6.98;100.00;101939.19;4985010;28;20073;-51
2022/11/27 10:03:25;;;;;;;11.55;5.80;;;;;;;6.99;100.00;101945.44;4960632;28;20462;-53
2022/11/27 10:06:11;;;;;;;13.35;5.38;;;;;;;7.01;100.00;101936.06;4976830;28;20498;-52
2022/11/27 10:08:51;;;;;;;11.48;5.57;;;;;;;7.01;100.00;101933.34;4978301;28;20093;-53
2022/11/27 10:11:40;;;;;;;13.05;6.13;;;;;;;7.06;100.00;101921.84;4986911;28;20053;-52
2022/11/27 10:14:41;;;;;;;13.32;6.25;;;;;;;7.11;100.00;101918.50;4976507;28;20445;-49
2022/11/27 10:17:19;;;;;;;11.13;5.60;;;;;;;7.12;100.00;101906.59;4976516;28;20055;-54
2022/11/27 10:19:52;;;;;;;12.88;5.55;;;;;;;7.13;100.00;101906.38;4952822;28;20045;-53
2022/11/27 10:22:33;;;;;;;10.98;5.47;;;;;;;7.14;100.00;101894.47;4982090;28;20061;-52
2022/11/27 10:25:19;;;;;;;10.77;5.32;;;;;;;7.14;100.00;101897.19;4950448;28;20045;-52
2022/11/27 10:28:02;;;;;;;9.73;5.40;;;;;;;7.15;100.00;101890.75;4981845;28;20034;-55
2022/11/27 10:30:31;;;;;;;11.73;5.70;;;;;;;7.15;100.00;101882.59;4978170;28;20049;-51
2022/11/27 10:33:00;;;;;;;12.85;5.70;;;;;;;7.15;100.00;101888.03;4958718;28;20063;-52
2022/11/27 10:35:30;;;;;;;13.10;6.15;;;;;;;7.14;100.00;101880.94;4962317;28;20038;-50
2022/11/27 10:38:10;;;;;;;12.30;6.00;;;;;;;7.17;100.00;101875.09;4973624;28;20041;-50
2022/11/27 10:40:58;;;;;;;11.93;5.80;;;;;;;7.18;100.00;101873.22;4974853;28;20067;-53
2022/11/27 10:43:25;;;;;;;11.15;6.25;;;;;;;7.19;100.00;101877.56;4976143;28;20502;-53
2022/11/27 10:46:18;;;;;;;11.50;5.65;;;;;;;7.20;100.00;101873.81;4975847;28;20038;-52
2022/11/27 10:48:46;;;;;;;11.63;5.65;;;;;;;7.24;100.00;101872.34;4964689;28;20097;-52
2022/11/27 10:51:33;;;;;;;10.73;5.75;;;;;;;7.27;100.00;101871.06;4979418;28;20394;-54
2022/11/27 10:54:02;;;;;;;13.88;6.03;;;;;;;7.34;100.00;101856.41;4966669;28;20516;-54
2022/11/27 10:56:54;;;;;;;11.70;5.78;;;;;;;7.30;100.00;101852.47;4976387;28;20049;-56
2022/11/27 10:59:26;;;;;;;11.63;6.10;;;;;;;7.31;100.00;101846.00;4970385;28;20043;-55
2022/11/27 11:02:02;;;;;;;11.38;5.78;;;;;;;7.30;100.00;101848.94;4983065;28;20051;-52
2022/11/27 11:04:30;;;;;;;13.75;6.13;;;;;;;7.27;100.00;101836.66;4964744;28;20599;-52
2022/11/27 11:07:26;;;;;;;11.80;5.90;;;;;;;7.24;100.00;101843.34;4975793;28;20038;-52
2022/11/27 11:09:55;;;;;;;11.68;5.72;;;;;;;7.29;100.00;101836.41;4976395;28;20058;-50
2022/11/27 11:12:23;;;;;;;11.63;6.40;;;;;;;7.27;100.00;101841.25;4981328;28;20034;-51
2022/11/27 11:14:59;;;;;;;12.45;5.93;;;;;;;7.27;100.00;101835.84;4985090;28;20053;-53
2022/11/27 11:17:36;;;;;;;12.13;6.25;;;;;;;7.24;100.00;101821.66;4977385;28;20042;-54
2022/11/27 11:20:33;;;;;;;11.23;5.90;;;;;;;7.24;100.00;101815.41;4980720;28;20051;-51
2022/11/27 11:23:00;;;;;;;12.45;5.75;;;;;;;7.23;100.00;101809.16;4943075;28;20398;-50
2022/11/27 11:25:28;;;;;;;12.63;6.45;;;;;;;7.25;100.00;101807.03;4958000;28;20524;-51
2022/11/27 11:27:56;;;;;;;17.92;6.35;;;;;;;7.27;100.00;101809.56;4947272;28;20038;-52
2022/11/27 11:30:27;;;;;;;12.93;6.35;;;;;;;7.27;100.00;101801.41;4982242;28;20096;-55
2022/11/27 11:33:01;;;;;;;14.52;6.15;;;;;;;7.27;100.00;101800.59;4975048;28;20055;-49
2022/11/27 11:35:31;;;;;;;11.48;5.57;;;;;;;7.28;100.00;101799.53;4967177;28;20071;-51
2022/11/27 11:38:00;;;;;;;11.88;6.10;;;;;;;7.30;100.00;101792.00;4976140;28;20034;-51
2022/11/27 11:40:33;;;;;;;12.27;6.07;;;;;;;7.32;100.00;101790.72;4973918;28;20089;-53
2022/11/27 11:43:08;;;;;;;12.57;6.35;;;;;;;7.32;100.00;101789.91;4957934;28;20047;-54